Time;durP1;ratioP1;P1;durP2;ratioP2;P2;SDS_P1;SDS_P2;PMS_P1;PMS_P2;Temp;Humidity;BMP_temperature;BMP_pressure;BME280_temperature;BME280_humidity;BME280_pressure;Samples;Min_cycle;Max_cycle;Signal;HPM_P1;HPM_P2
2022/10/16 00:01:46;;;;;;;7.47;1.85;;;;;;;11.57;100.00;100821.00;5073053;27;20047;-81
2022/10/16 00:04:18;;;;;;;6.03;1.60;;;;;;;11.57;100.00;100815.72;5077371;27;20031;-81
2022/10/16 00:06:47;;;;;;;9.35;2.00;;;;;;;11.57;100.00;100804.25;5128011;27;20058;-81
2022/10/16 00:09:16;;;;;;;10.90;2.53;;;;;;;11.57;100.00;100817.47;5068871;28;20240;-81
2022/10/16 00:11:45;;;;;;;5.55;2.05;;;;;;;11.56;100.00;100813.94;5098472;28;20036;-81
2022/10/16 00:14:14;;;;;;;5.22;1.90;;;;;;;11.56;100.00;100813.09;5103949;27;20246;-81
2022/10/16 00:16:43;;;;;;;7.60;2.55;;;;;;;11.56;100.00;100816.59;5095220;27;20035;-81
2022/10/16 00:19:12;;;;;;;9.05;1.92;;;;;;;11.56;100.00;100813.94;5122683;27;20543;-81
2022/10/16 00:21:41;;;;;;;2.45;1.60;;;;;;;11.56;100.00;100813.09;5126438;27;20047;-81
2022/10/16 00:24:10;;;;;;;9.05;2.33;;;;;;;11.56;100.00;100811.31;5100485;28;20522;-81
2022/10/16 00:26:39;;;;;;;6.47;1.98;;;;;;;11.57;100.00;100817.47;5106115;28;20062;-81
2022/10/16 00:29:08;;;;;;;7.15;2.22;;;;;;;11.54;100.00;100805.16;5119646;28;20049;-81
2022/10/16 00:31:36;;;;;;;6.45;2.17;;;;;;;11.56;100.00;100810.44;5072028;28;20036;-81
2022/10/16 00:34:05;;;;;;;6.20;2.40;;;;;;;11.55;100.00;100806.94;5086190;28;20069;-81
2022/10/16 00:36:33;;;;;;;4.57;1.90;;;;;;;11.53;100.00;100800.78;5091107;28;20036;-81
2022/10/16 00:39:02;;;;;;;10.45;2.28;;;;;;;11.54;100.00;100812.22;5118578;27;20394;-81
2022/10/16 00:41:32;;;;;;;6.72;2.05;;;;;;;11.51;100.00;100803.41;5096476;28;20400;-81
2022/10/16 00:44:23;;;;;;;6.70;2.40;;;;;;;11.52;100.00;100806.94;5122719;27;20043;-82
2022/10/16 00:46:51;;;;;;;8.18;2.35;;;;;;;11.52;100.00;100806.94;5088632;27;20464;-81
2022/10/16 00:49:20;;;;;;;6.55;2.55;;;;;;;11.51;100.00;100813.97;5067279;28;20059;-81
2022/10/16 00:51:53;;;;;;;3.92;1.88;;;;;;;11.51;100.00;100811.34;5117207;28;20047;-82
2022/10/16 00:54:30;;;;;;;6.57;1.75;;;;;;;11.51;100.00;100810.44;5116934;28;20059;-82
2022/10/16 00:57:05;;;;;;;12.02;1.95;;;;;;;11.51;100.00;100821.88;5106793;27;20495;-83
2022/10/16 00:59:40;;;;;;;6.45;1.98;;;;;;;11.51;100.00;100813.06;5129805;27;20043;-81
2022/10/16 01:02:13;;;;;;;5.53;2.50;;;;;;;11.50;100.00;100817.47;5054348;27;20274;-82
2022/10/16 01:04:54;;;;;;;7.20;1.88;;;;;;;11.50;100.00;100808.69;5078157;28;20054;-83
2022/10/16 01:07:49;;;;;;;9.27;2.20;;;;;;;11.49;100.00;100813.09;5072130;27;20070;-80
2022/10/16 01:10:34;;;;;;;7.72;1.75;;;;;;;11.48;100.00;100813.09;5104922;28;20065;-82
2022/10/16 01:13:23;;;;;;;5.07;2.15;;;;;;;11.48;100.00;100799.91;5111927;27;20039;-81
2022/10/16 01:15:57;;;;;;;3.67;1.70;;;;;;;11.47;100.00;100811.31;5107024;27;20055;-81
2022/10/16 01:18:42;;;;;;;5.88;1.80;;;;;;;11.47;100.00;100800.78;5075771;27;20392;-80
2022/10/16 01:21:20;;;;;;;5.40;2.00;;;;;;;11.45;100.00;100808.69;5085445;28;20035;-82
2022/10/16 01:24:10;;;;;;;3.42;1.50;;;;;;;11.43;100.00;100794.63;5103100;27;20054;-82
2022/10/16 01:27:03;;;;;;;3.33;1.98;;;;;;;11.43;100.00;100799.03;5079228;28;20058;-82
2022/10/16 01:29:59;;;;;;;6.55;1.80;;;;;;;11.40;100.00;100810.47;5104354;27;20058;-82
2022/10/16 01:32:45;;;;;;;8.93;2.33;;;;;;;11.38;100.00;100816.59;5041654;27;20062;-81
2022/10/16 01:35:23;;;;;;;6.80;1.80;;;;;;;11.35;100.00;100817.50;5093088;27;20546;-81
2022/10/16 01:37:59;;;;;;;3.50;1.83;;;;;;;11.34;100.00;100814.84;5088522;28;20396;-81
2022/10/16 01:40:29;;;;;;;5.43;2.05;;;;;;;11.31;100.00;100815.75;5090570;28;20059;-82
2022/10/16 01:43:07;;;;;;;3.08;2.10;;;;;;;11.29;100.00;100821.00;5102769;27;20047;-82
2022/10/16 01:45:36;;;;;;;3.88;1.83;;;;;;;11.28;100.00;100818.38;5109968;27;20066;-82
2022/10/16 01:48:07;;;;;;;5.85;2.03;;;;;;;11.26;100.00;100823.63;5065492;27;20047;-81
2022/10/16 01:50:40;;;;;;;3.13;1.60;;;;;;;11.25;100.00;100815.75;5091111;27;20392;-81
2022/10/16 01:53:12;;;;;;;3.08;1.95;;;;;;;11.23;100.00;100813.09;5124890;27;20605;-81
2022/10/16 01:55:47;;;;;;;2.95;1.90;;;;;;;11.23;100.00;100818.38;5109277;27;20065;-81
2022/10/16 01:58:15;;;;;;;7.90;2.33;;;;;;;11.23;100.00;100817.50;5103969;28;20169;-81
2022/10/16 02:00:46;;;;;;;6.55;1.90;;;;;;;11.22;100.00;100819.25;5122184;27;20054;-81
2022/10/16 02:03:18;;;;;;;5.10;1.92;;;;;;;11.23;100.00;100825.44;5072169;27;20051;-81
2022/10/16 02:05:58;;;;;;;2.40;1.35;;;;;;;11.21;100.00;100822.78;5097039;27;20051;-83
2022/10/16 02:08:30;;;;;;;5.45;1.52;;;;;;;11.22;100.00;100828.94;5092071;27;20040;-81
2022/10/16 02:11:01;;;;;;;4.45;1.80;;;;;;;11.21;100.00;100830.69;5103937;28;20519;-82
2022/10/16 02:13:55;;;;;;;6.65;2.30;;;;;;;11.23;100.00;100823.66;5104966;27;20335;-81
2022/10/16 02:16:36;;;;;;;6.40;1.63;;;;;;;11.25;100.00;100824.53;5090945;27;20216;-81
2022/10/16 02:19:06;;;;;;;2.60;1.88;;;;;;;11.27;100.00;100827.19;5061178;27;20039;-81
2022/10/16 02:21:47;;;;;;;4.85;1.80;;;;;;;11.29;100.00;100818.38;5122118;27;20062;-81
2022/10/16 02:24:37;;;;;;;6.63;1.85;;;;;;;11.30;100.00;100820.16;5107467;27;20255;-81
2022/10/16 02:27:28;;;;;;;4.50;1.90;;;;;;;11.33;100.00;100813.97;5123965;27;20357;-81
2022/10/16 02:30:07;;;;;;;4.70;2.08;;;;;;;11.36;100.00;100818.38;5114100;27;20036;-83
2022/10/16 02:32:40;;;;;;;4.05;1.42;;;;;;;11.38;100.00;100817.50;5078864;27;20039;-82
2022/10/16 02:35:10;;;;;;;5.90;1.80;;;;;;;11.39;100.00;100815.75;5056125;28;20031;-81
2022/10/16 02:37:41;;;;;;;8.15;2.13;;;;;;;11.42;100.00;100826.31;5119568;27;20504;-81
2022/10/16 02:40:11;;;;;;;5.68;1.88;;;;;;;11.44;100.00;100819.25;5068848;28;20732;-82
2022/10/16 02:42:40;;;;;;;7.22;2.40;;;;;;;11.45;100.00;100818.38;5103639;27;20058;-81
2022/10/16 02:45:10;;;;;;;6.05;1.88;;;;;;;11.47;100.00;100819.25;5101422;28;20347;-81
2022/10/16 02:47:38;;;;;;;3.55;1.50;;;;;;;11.47;100.00;100813.97;5122042;27;20379;-81
2022/10/16 02:50:07;;;;;;;3.58;1.30;;;;;;;11.49;100.00;100821.00;5070669;27;20157;-82
2022/10/16 02:52:35;;;;;;;3.85;1.60;;;;;;;11.49;100.00;100818.38;5106892;28;20040;-81
2022/10/16 02:55:04;;;;;;;3.38;1.60;;;;;;;11.50;100.00;100820.13;5098216;27;20525;-82
2022/10/16 02:57:33;;;;;;;4.47;2.03;;;;;;;11.52;100.00;100825.41;5072022;28;20408;-82
2022/10/16 03:00:04;;;;;;;3.97;1.75;;;;;;;11.54;100.00;100821.00;5097181;27;20050;-82
2022/10/16 03:02:33;;;;;;;6.47;1.80;;;;;;;11.55;100.00;100824.50;5105595;28;20036;-82
2022/10/16 03:05:02;;;;;;;4.13;1.70;;;;;;;11.56;100.00;100821.00;5084434;27;20054;-81
2022/10/16 03:07:30;;;;;;;3.75;2.28;;;;;;;11.57;100.00;100828.00;5092512;28;20039;-81
2022/10/16 03:10:00;;;;;;;5.28;1.85;;;;;;;11.56;100.00;100837.69;5082035;27;20518;-81
2022/10/16 03:12:29;;;;;;;3.60;1.90;;;;;;;11.58;100.00;100840.34;5087674;28;20476;-81
2022/10/16 03:14:58;;;;;;;6.80;1.70;;;;;;;11.58;100.00;100841.22;5076491;28;20052;-82
2022/10/16 03:17:26;;;;;;;4.22;1.52;;;;;;;11.59;100.00;100843.00;5102297;28;20055;-82
2022/10/16 03:19:55;;;;;;;3.50;1.63;;;;;;;11.59;100.00;100837.72;5094597;27;20047;-82
2022/10/16 03:22:25;;;;;;;7.68;2.03;;;;;;;11.59;100.00;100834.22;5078091;28;20054;-81
2022/10/16 03:24:54;;;;;;;4.68;1.80;;;;;;;11.60;100.00;100843.88;5115599;27;20046;-83
2022/10/16 03:27:22;;;;;;;7.03;2.00;;;;;;;11.60;100.00;100841.22;5073834;27;20648;-81
2022/10/16 03:29:51;;;;;;;4.45;1.70;;;;;;;11.60;100.00;100839.44;5107470;27;20027;-81
2022/10/16 03:32:20;;;;;;;4.03;2.00;;;;;;;11.61;100.00;100835.94;5124890;27;20047;-81
2022/10/16 03:34:48;;;;;;;5.68;1.88;;;;;;;11.59;100.00;100839.47;5084372;27;20054;-80
2022/10/16 03:37:16;;;;;;;7.82;2.05;;;;;;;11.59;100.00;100844.75;5084704;27;20043;-82
2022/10/16 03:39:46;;;;;;;5.55;1.90;;;;;;;11.56;100.00;100827.16;5071936;28;20048;-82
2022/10/16 03:42:14;;;;;;;2.77;1.40;;;;;;;11.55;100.00;100841.25;5086116;28;20058;-81
2022/10/16 03:44:43;;;;;;;6.45;1.90;;;;;;;11.56;100.00;100844.75;5118745;27;20047;-81
2022/10/16 03:47:11;;;;;;;5.63;2.35;;;;;;;11.54;100.00;100857.94;5096889;27;20279;-81
2022/10/16 03:49:39;;;;;;;6.30;1.95;;;;;;;11.52;100.00;100855.28;5091864;27;20038;-81
2022/10/16 03:52:08;;;;;;;3.42;1.88;;;;;;;11.51;100.00;100848.28;5053246;27;20050;-81
2022/10/16 03:54:36;;;;;;;3.47;1.80;;;;;;;11.51;100.00;100860.56;5127882;27;20108;-81
2022/10/16 03:57:05;;;;;;;6.72;1.90;;;;;;;11.51;100.00;100852.66;5088223;27;20060;-81
2022/10/16 03:59:33;;;;;;;4.25;2.17;;;;;;;11.49;100.00;100851.78;5106625;28;20059;-81
2022/10/16 04:02:01;;;;;;;3.58;1.58;;;;;;;11.49;100.00;100852.69;5045339;27;20047;-81
2022/10/16 04:04:30;;;;;;;4.65;1.83;;;;;;;11.49;100.00;100857.97;5097989;28;20055;-80
2022/10/16 04:06:58;;;;;;;4.20;1.92;;;;;;;11.49;100.00;100857.06;5070542;27;20043;-81
2022/10/16 04:09:27;;;;;;;2.33;1.60;;;;;;;11.48;100.00;100861.47;5098275;28;20039;-81
2022/10/16 04:11:55;;;;;;;11.00;2.33;;;;;;;11.47;100.00;100858.81;5098216;27;20043;-81
2022/10/16 04:14:24;;;;;;;2.63;2.13;;;;;;;11.47;100.00;100853.53;5128400;27;20036;-80
2022/10/16 04:16:52;;;;;;;5.70;2.10;;;;;;;11.46;100.00;100857.94;5126664;27;20039;-80
2022/10/16 04:19:20;;;;;;;2.67;1.90;;;;;;;11.46;100.00;100857.94;5092031;27;20043;-81
2022/10/16 04:21:49;;;;;;;4.80;1.95;;;;;;;11.46;100.00;100857.94;5098175;27;20051;-80
2022/10/16 04:24:17;;;;;;;3.83;1.90;;;;;;;11.45;100.00;100865.84;5065968;28;20408;-82
2022/10/16 04:26:45;;;;;;;4.25;1.67;;;;;;;11.45;100.00;100863.22;5124838;27;20039;-82
2022/10/16 04:29:13;;;;;;;1.70;1.60;;;;;;;11.44;100.00;100875.53;5105781;28;20255;-81
2022/10/16 04:31:42;;;;;;;4.57;2.88;;;;;;;11.44;100.00;100870.28;5119673;27;20039;-82
2022/10/16 04:34:10;;;;;;;2.35;2.15;;;;;;;11.43;100.00;100873.78;5087542;27;20270;-80
2022/10/16 04:36:38;;;;;;;6.72;2.45;;;;;;;11.42;100.00;100872.03;5109732;27;20044;-81
2022/10/16 04:39:07;;;;;;;5.50;1.67;;;;;;;11.41;100.00;100880.81;5054874;27;20039;-81
2022/10/16 04:41:35;;;;;;;6.47;2.00;;;;;;;11.40;100.00;100883.44;5112195;27;20527;-81
2022/10/16 04:44:07;;;;;;;2.45;1.58;;;;;;;11.39;100.00;100889.63;5102936;28;20052;-80
2022/10/16 04:46:36;;;;;;;2.42;1.85;;;;;;;11.38;100.00;100893.13;5109138;28;20389;-80
2022/10/16 04:49:04;;;;;;;2.20;1.80;;;;;;;11.36;100.00;100889.59;5101442;27;20255;-81
2022/10/16 04:51:32;;;;;;;4.00;2.08;;;;;;;11.36;100.00;100902.78;5116039;27;20050;-81
2022/10/16 04:54:01;;;;;;;3.85;1.95;;;;;;;11.36;100.00;100905.44;5041100;27;20051;-81
2022/10/16 04:56:29;;;;;;;3.03;1.50;;;;;;;11.35;100.00;100911.59;5078636;27;20047;-81
2022/10/16 04:58:57;;;;;;;3.38;1.90;;;;;;;11.37;100.00;100910.72;5076848;27;20032;-81
2022/10/16 05:01:26;;;;;;;5.28;1.60;;;;;;;11.38;100.00;100919.50;5096534;27;20051;-81
2022/10/16 05:03:54;;;;;;;6.07;1.55;;;;;;;11.38;100.00;100912.50;5107610;28;20047;-81
2022/10/16 05:06:22;;;;;;;5.32;2.15;;;;;;;11.40;100.00;100926.56;5087865;28;20039;-81
2022/10/16 05:08:51;;;;;;;4.65;2.20;;;;;;;11.41;100.00;100924.78;5074019;27;20043;-83
2022/10/16 05:11:19;;;;;;;2.53;1.55;;;;;;;11.43;100.00;100934.47;5094706;27;20039;-81
2022/10/16 05:13:48;;;;;;;4.13;1.85;;;;;;;11.47;100.00;100937.97;5108696;28;20046;-81
2022/10/16 05:16:20;;;;;;;3.33;1.63;;;;;;;11.50;100.00;100944.16;5106918;27;21226;-80
2022/10/16 05:18:49;;;;;;;5.72;2.40;;;;;;;11.54;100.00;100938.88;5094719;27;20047;-80
2022/10/16 05:21:23;;;;;;;4.22;2.53;;;;;;;11.58;100.00;100932.72;5076093;28;20507;-81
2022/10/16 05:23:53;;;;;;;2.35;1.70;;;;;;;11.61;100.00;100936.25;5048347;28;20039;-83
2022/10/16 05:26:21;;;;;;;6.70;1.97;;;;;;;11.63;100.00;100920.41;5124322;27;20043;-82
2022/10/16 05:28:50;;;;;;;7.18;2.00;;;;;;;11.65;100.00;100913.38;5112369;27;20043;-82
2022/10/16 05:31:18;;;;;;;9.07;2.35;;;;;;;11.68;100.00;100931.81;5105079;27;20558;-81
2022/10/16 05:33:48;;;;;;;3.75;2.10;;;;;;;11.70;100.00;100933.59;5121260;27;20062;-82
2022/10/16 05:36:21;;;;;;;6.38;1.70;;;;;;;11.70;100.00;100936.25;5111554;27;20062;-81
2022/10/16 05:38:52;;;;;;;8.40;2.00;;;;;;;11.71;100.00;100940.63;5066641;27;20040;-82
2022/10/16 05:41:25;;;;;;;3.13;1.63;;;;;;;11.73;100.00;100942.41;5088458;27;20350;-81
2022/10/16 05:43:53;;;;;;;3.88;1.60;;;;;;;11.70;100.00;100936.25;5128296;27;20499;-81
2022/10/16 05:46:22;;;;;;;5.80;1.70;;;;;;;11.70;100.00;100941.53;5074158;27;20679;-81
2022/10/16 05:48:53;;;;;;;5.78;1.80;;;;;;;11.70;100.00;100941.53;5110251;27;20043;-82
2022/10/16 05:51:21;;;;;;;4.53;1.83;;;;;;;11.70;100.00;100940.63;5109574;27;20248;-82
2022/10/16 05:53:50;;;;;;;4.03;2.10;;;;;;;11.70;100.00;100935.34;5094152;27;20039;-82
2022/10/16 05:56:18;;;;;;;3.85;1.70;;;;;;;11.71;100.00;100939.75;5067886;27;20055;-81
2022/10/16 05:58:49;;;;;;;2.03;1.83;;;;;;;11.70;100.00;100946.81;5110983;27;20503;-80
2022/10/16 06:01:18;;;;;;;4.57;1.67;;;;;;;11.72;100.00;100941.53;5106569;28;20267;-83
2022/10/16 06:03:47;;;;;;;9.65;2.22;;;;;;;11.73;100.00;100945.91;5107739;27;20035;-80
2022/10/16 06:06:21;;;;;;;4.22;1.75;;;;;;;11.73;100.00;100959.13;5093181;28;20316;-80
2022/10/16 06:08:52;;;;;;;5.43;2.08;;;;;;;11.73;100.00;100951.19;5128325;27;20047;-81
2022/10/16 06:11:24;;;;;;;2.85;1.88;;;;;;;11.75;100.00;100959.13;5071153;27;20180;-81
2022/10/16 06:13:56;;;;;;;6.20;2.70;;;;;;;11.76;100.00;100958.22;5116580;27;20047;-81
2022/10/16 06:16:25;;;;;;;5.30;2.20;;;;;;;11.76;100.00;100969.69;5109819;27;20042;-81
2022/10/16 06:18:59;;;;;;;4.22;2.00;;;;;;;11.78;100.00;100967.06;5122995;27;20043;-81
2022/10/16 06:21:29;;;;;;;2.75;2.10;;;;;;;11.78;100.00;100972.34;5108788;27;20374;-80
2022/10/16 06:23:58;;;;;;;3.33;2.00;;;;;;;11.78;100.00;100980.25;5107034;27;20043;-81
2022/10/16 06:26:28;;;;;;;6.07;2.13;;;;;;;11.79;100.00;100984.63;5081270;27;20043;-81
2022/10/16 06:28:58;;;;;;;;;;;;;;;11.79;100.00;100993.44;5121329;27;20039;-81
2022/10/16 06:31:30;;;;;;;6.15;2.50;;;;;;;11.79;100.00;100982.88;5091896;27;19920;-80
2022/10/16 06:33:59;;;;;;;9.90;2.50;;;;;;;11.81;100.00;100990.78;5108916;27;20385;-81
2022/10/16 06:36:28;;;;;;;7.18;2.70;;;;;;;11.81;100.00;100985.53;5095242;27;20531;-81
2022/10/16 06:38:56;;;;;;;5.53;2.17;;;;;;;11.83;100.00;100978.47;5091205;27;20039;-81
2022/10/16 06:41:24;;;;;;;3.38;2.00;;;;;;;11.84;100.00;101004.88;5089850;28;20044;-81
2022/10/16 06:43:53;;;;;;;6.03;2.22;;;;;;;11.88;100.00;100992.56;5050443;27;20035;-81
2022/10/16 06:46:23;;;;;;;5.18;2.42;;;;;;;11.90;100.00;100991.72;5109399;27;20180;-81
2022/10/16 06:48:52;;;;;;;2.58;2.17;;;;;;;11.95;100.00;100981.16;5097230;27;20161;-81
2022/10/16 06:51:23;;;;;;;6.18;1.90;;;;;;;11.99;100.00;100985.56;5074050;28;20532;-81
2022/10/16 06:53:53;;;;;;;3.03;1.92;;;;;;;12.04;100.00;100993.47;5082028;27;20062;-81
2022/10/16 06:56:32;;;;;;;5.18;2.33;;;;;;;12.07;100.00;100991.72;5088250;27;20375;-80
2022/10/16 06:59:01;;;;;;;4.55;2.65;;;;;;;12.10;100.00;101009.34;5051983;27;20046;-82
2022/10/16 07:01:30;;;;;;;4.63;2.60;;;;;;;12.12;100.00;101015.50;5107394;28;20500;-80
2022/10/16 07:04:00;;;;;;;2.97;2.22;;;;;;;12.13;100.00;101025.16;5101710;27;20360;-82
2022/10/16 07:06:32;;;;;;;4.22;2.20;;;;;;;12.16;100.00;101040.16;5079281;28;20513;-81
2022/10/16 07:09:04;;;;;;;12.30;2.92;;;;;;;12.18;100.00;101039.25;5110872;27;20042;-81
2022/10/16 07:11:33;;;;;;;9.13;2.38;;;;;;;12.20;100.00;101033.97;5128671;27;20039;-81
2022/10/16 07:14:02;;;;;;;5.95;2.20;;;;;;;12.21;100.00;101031.34;5047180;28;20043;-82
2022/10/16 07:16:32;;;;;;;7.03;2.33;;;;;;;12.25;100.00;101050.72;5082670;28;20039;-81
2022/10/16 07:19:02;;;;;;;4.72;2.33;;;;;;;12.27;100.00;101033.97;5085647;27;20054;-81
2022/10/16 07:21:35;;;;;;;2.47;2.13;;;;;;;12.29;100.00;101032.22;5107184;28;20031;-80
2022/10/16 07:24:07;;;;;;;5.57;2.60;;;;;;;12.33;100.00;101053.34;5099576;28;20290;-81
2022/10/16 07:26:38;;;;;;;4.05;1.92;;;;;;;12.34;100.00;101055.97;5124878;27;20043;-81
2022/10/16 07:29:13;;;;;;;5.65;1.95;;;;;;;12.36;100.00;101066.53;5067134;27;20269;-81
2022/10/16 07:31:43;;;;;;;5.47;2.15;;;;;;;12.38;100.00;101060.41;5106152;28;20050;-81
2022/10/16 07:34:13;;;;;;;4.82;1.98;;;;;;;12.40;100.00;101066.56;5106386;27;20043;-80
2022/10/16 07:36:42;;;;;;;6.10;2.00;;;;;;;12.42;100.00;101074.47;5089964;27;20147;-81
2022/10/16 07:39:10;;;;;;;4.57;2.60;;;;;;;12.44;100.00;101084.16;5106649;27;20260;-81
2022/10/16 07:41:40;;;;;;;9.50;2.20;;;;;;;12.47;100.00;101086.78;5071285;27;20043;-81
2022/10/16 07:44:27;;;;;;;5.55;2.63;;;;;;;12.50;100.00;101091.22;5067895;28;20047;-81
2022/10/16 07:46:56;;;;;;;4.15;1.95;;;;;;;12.53;100.00;101087.69;5031019;27;20039;-82
2022/10/16 07:49:29;;;;;;;8.55;2.00;;;;;;;12.56;100.00;101085.03;5105034;28;20396;-81
2022/10/16 07:51:57;;;;;;;4.78;1.48;;;;;;;12.62;100.00;101100.88;5078668;27;20051;-82
2022/10/16 07:54:25;;;;;;;6.00;1.90;;;;;;;12.66;100.00;101115.84;5084584;28;20036;-81
2022/10/16 07:56:54;;;;;;;4.50;1.95;;;;;;;12.68;100.00;101112.34;5110926;27;20043;-82
2022/10/16 07:59:22;;;;;;;4.00;1.80;;;;;;;12.70;100.00;101112.31;5111427;27;20043;-81
2022/10/16 08:01:51;;;;;;;3.30;1.90;;;;;;;12.73;100.00;101112.34;5066896;27;20039;-82
2022/10/16 08:04:19;;;;;;;2.13;1.70;;;;;;;12.76;100.00;101117.63;5093204;28;20512;-82
2022/10/16 08:06:49;;;;;;;3.00;1.63;;;;;;;12.80;100.00;101116.72;5118162;27;20058;-81
2022/10/16 08:09:20;;;;;;;7.22;1.75;;;;;;;12.82;100.00;101122.91;5110664;27;20047;-82
2022/10/16 08:11:48;;;;;;;5.53;1.70;;;;;;;12.86;100.00;101115.84;5089708;27;20047;-82
2022/10/16 08:14:17;;;;;;;3.35;1.80;;;;;;;12.91;100.00;101105.25;5103931;28;20032;-82
2022/10/16 08:16:45;;;;;;;5.80;2.00;;;;;;;12.95;100.00;101113.19;5081331;27;20404;-83
2022/10/16 08:19:15;;;;;;;4.43;1.80;;;;;;;12.98;100.00;101125.50;5065925;27;20350;-80
2022/10/16 08:21:47;;;;;;;2.78;1.40;;;;;;;13.01;100.00;101130.81;5076445;28;20050;-80
2022/10/16 08:24:16;;;;;;;8.15;2.10;;;;;;;13.04;100.00;101144.00;5124882;27;20519;-81
2022/10/16 08:26:44;;;;;;;3.70;1.70;;;;;;;13.04;100.00;101151.94;5087108;28;20388;-81
2022/10/16 08:29:14;;;;;;;3.72;1.98;;;;;;;13.06;100.00;101156.38;5093649;28;20165;-80
2022/10/16 08:31:42;;;;;;;5.55;2.42;;;;;;;13.19;100.00;101161.63;5064468;28;20040;-81
2022/10/16 08:34:11;;;;;;;3.40;1.83;;;;;;;13.46;100.00;101166.00;5070442;28;20421;-81
2022/10/16 08:36:40;;;;;;;6.30;1.92;;;;;;;13.76;100.00;101167.63;5069501;28;20040;-81
2022/10/16 08:39:08;;;;;;;3.63;1.50;;;;;;;13.93;100.00;101170.19;5100437;28;20235;-82
2022/10/16 08:41:52;;;;;;;3.97;1.70;;;;;;;14.02;100.00;101174.53;5104066;28;20393;-82
2022/10/16 08:44:36;;;;;;;4.78;1.80;;;;;;;14.08;100.00;101174.50;5112173;27;20492;-82
2022/10/16 08:47:19;;;;;;;6.15;1.60;;;;;;;14.24;100.00;101170.00;5043537;27;22429;-82
2022/10/16 08:49:58;;;;;;;7.45;1.70;;;;;;;14.37;100.00;101176.09;5099780;27;20052;-81
2022/10/16 08:52:32;;;;;;;6.63;1.50;;;;;;;14.40;100.00;101176.06;5081384;28;20377;-80
2022/10/16 08:55:01;;;;;;;7.22;1.50;;;;;;;14.54;100.00;101166.22;5083608;28;20031;-80
2022/10/16 08:57:33;;;;;;;3.75;1.70;;;;;;;14.70;100.00;101159.03;5099053;28;20031;-80
2022/10/16 09:00:13;;;;;;;8.07;1.98;;;;;;;14.89;100.00;101172.16;5087205;28;20040;-79
2022/10/16 09:02:52;;;;;;;5.15;1.40;;;;;;;15.00;100.00;101184.41;5097060;28;20040;-79
2022/10/16 09:05:51;;;;;;;3.67;1.42;;;;;;;15.09;100.00;101210.00;5111111;28;20054;-79
2022/10/16 09:09:06;;;;;;;1.75;1.20;;;;;;;15.10;100.00;101216.19;5108702;27;20047;-80
2022/10/16 09:11:54;;;;;;;4.32;1.40;;;;;;;15.02;100.00;101226.88;5039450;28;20053;-79
2022/10/16 09:14:40;;;;;;;3.58;1.75;;;;;;;14.96;100.00;101219.84;5090721;28;20058;-79
2022/10/16 09:17:38;;;;;;;5.45;1.80;;;;;;;14.87;100.00;101227.00;5104060;27;20041;-79
2022/10/16 09:20:15;;;;;;;7.80;1.70;;;;;;;14.79;100.00;101230.59;5040514;28;20328;-79
2022/10/16 09:22:45;;;;;;;4.93;1.45;;;;;;;14.74;100.00;101228.88;5071836;27;20044;-80
2022/10/16 09:25:20;;;;;;;8.45;2.08;;;;;;;14.64;100.00;101241.31;5090061;27;20254;-79
2022/10/16 09:27:53;;;;;;;4.75;1.63;;;;;;;14.59;100.00;101245.78;5099374;27;20412;-79
2022/10/16 09:30:22;;;;;;;7.40;1.85;;;;;;;14.53;100.00;101251.09;5105036;27;20051;-79
2022/10/16 09:32:53;;;;;;;4.17;1.43;;;;;;;14.56;100.00;101248.44;5091007;28;20046;-78
2022/10/16 09:35:27;;;;;;;4.53;1.60;;;;;;;14.71;100.00;101258.97;5067145;27;20031;-79
2022/10/16 09:37:55;;;;;;;6.53;1.58;;;;;;;14.82;100.00;101245.63;5092716;27;20052;-79
2022/10/16 09:40:31;;;;;;;9.45;1.73;;;;;;;14.89;100.00;101257.94;5099221;27;20039;-80
2022/10/16 09:43:31;;;;;;;5.22;1.40;;;;;;;14.88;100.00;101250.88;5085745;27;20051;-80
2022/10/16 09:46:06;;;;;;;5.35;1.73;;;;;;;14.87;100.00;101261.50;5098250;27;20039;-79
2022/10/16 09:48:44;;;;;;;4.63;1.33;;;;;;;14.89;100.00;101267.66;5105869;27;20032;-79
2022/10/16 09:51:35;;;;;;;7.07;1.60;;;;;;;14.84;100.00;101269.47;5066093;27;20047;-79
2022/10/16 09:54:09;;;;;;;6.80;1.27;;;;;;;14.86;100.00;101262.38;5096463;27;20483;-78
2022/10/16 09:56:41;;;;;;;4.95;1.60;;;;;;;14.92;100.00;101262.34;5099089;27;20035;-78
2022/10/16 09:59:23;;;;;;;6.20;1.30;;;;;;;15.01;100.00;101263.16;5075915;27;20066;-78
2022/10/16 10:01:55;;;;;;;8.45;1.70;;;;;;;15.05;100.00;101276.38;5094071;27;20051;-78
2022/10/16 10:04:25;;;;;;;9.40;2.47;;;;;;;15.09;100.00;101281.66;5108714;27;20048;-78
2022/10/16 10:06:58;;;;;;;;;;;;;;;15.14;100.00;101277.19;5089513;27;20047;-77
2022/10/16 10:09:30;;;;;;;5.28;1.52;;;;;;;15.19;100.00;101279.81;5097440;27;19942;-78
2022/10/16 10:12:04;;;;;;;7.95;1.75;;;;;;;15.17;100.00;101277.16;5084338;27;20457;-78
2022/10/16 10:14:39;;;;;;;5.43;1.75;;;;;;;15.26;100.00;101288.59;5099239;28;20046;-77
2022/10/16 10:17:23;;;;;;;7.45;1.65;;;;;;;15.27;100.00;101287.69;5086175;27;20500;-77
2022/10/16 10:19:58;;;;;;;10.95;1.42;;;;;;;15.28;100.00;101305.41;5099729;27;20519;-78
2022/10/16 10:22:30;;;;;;;6.28;1.67;;;;;;;15.34;100.00;101297.38;5052504;28;20063;-77
2022/10/16 10:25:07;;;;;;;10.63;2.22;;;;;;;15.40;100.00;101305.28;5087312;27;20241;-79
2022/10/16 10:27:55;;;;;;;5.03;1.50;;;;;;;15.38;100.00;101296.44;5107125;28;20103;-78
2022/10/16 10:30:53;;;;;;;7.80;2.08;;;;;;;15.36;100.00;101304.41;5094252;28;20043;-80
2022/10/16 10:33:31;;;;;;;10.00;1.88;;;;;;;15.40;100.00;101311.44;5079793;27;20055;-78
2022/10/16 10:36:27;;;;;;;9.75;2.08;;;;;;;15.36;100.00;101314.16;5062761;28;20268;-77
2022/10/16 10:39:22;;;;;;;8.10;2.10;;;;;;;15.28;100.00;101321.31;5041290;27;20040;-79
2022/10/16 10:42:07;;;;;;;6.25;2.05;;;;;;;15.27;100.00;101330.16;5094300;27;20407;-79
2022/10/16 10:44:54;;;;;;;10.90;2.30;;;;;;;15.28;100.00;101326.63;5090460;27;20031;-79
2022/10/16 10:47:46;;;;;;;14.68;3.45;;;;;;;15.30;100.00;101333.69;5091777;27;20038;-78
2022/10/16 10:50:45;;;;;;;12.52;2.13;;;;;;;15.40;100.00;101337.13;5074247;27;20233;-78
2022/10/16 10:53:38;;;;;;;11.25;2.20;;;;;;;15.49;100.00;101330.88;5035261;27;20492;-79
2022/10/16 10:56:35;;;;;;;8.05;1.92;;;;;;;15.64;100.00;101345.78;5104020;27;20031;-78
2022/10/16 10:59:55;;;;;;;10.25;2.00;;;;;;;15.84;100.00;101348.25;5077415;27;20030;-79
2022/10/16 11:02:42;;;;;;;12.95;2.33;;;;;;;16.00;100.00;101351.66;5072963;27;20047;-78
2022/10/16 11:05:38;;;;;;;11.40;2.70;;;;;;;16.01;100.00;101351.63;5085292;27;20246;-78
2022/10/16 11:08:25;;;;;;;10.25;2.80;;;;;;;16.02;100.00;101348.06;5047861;27;20066;-77
2022/10/16 11:10:58;;;;;;;15.07;2.83;;;;;;;16.04;100.00;101358.69;5102104;27;20055;-80
2022/10/16 11:14:02;;;;;;;9.82;2.03;;;;;;;16.05;100.00;101363.97;5100947;27;20047;-78
2022/10/16 11:17:02;;;;;;;7.68;1.80;;;;;;;16.02;100.00;101363.13;5023036;28;20065;-78
2022/10/16 11:19:48;;;;;;;8.48;2.08;;;;;;;16.00;100.00;101376.44;5103061;27;20039;-78
2022/10/16 11:22:35;;;;;;;7.75;1.90;;;;;;;15.96;100.00;101380.91;5091353;27;20143;-78
2022/10/16 11:25:13;;;;;;;12.80;2.70;;;;;;;15.99;100.00;101379.97;5045994;27;20354;-78
2022/10/16 11:27:54;;;;;;;11.60;2.20;;;;;;;16.02;100.00;101395.03;5087596;27;20040;-81
2022/10/16 11:30:30;;;;;;;12.35;2.65;;;;;;;16.04;100.00;101382.59;5082539;27;20046;-78
2022/10/16 11:33:08;;;;;;;8.20;1.75;;;;;;;16.03;100.00;101394.13;5104628;27;20689;-79
2022/10/16 11:35:46;;;;;;;10.82;2.35;;;;;;;16.07;100.00;101387.91;5126690;27;20039;-79
2022/10/16 11:38:14;;;;;;;12.55;2.67;;;;;;;16.13;100.00;101387.81;5079354;27;20027;-79
2022/10/16 11:40:57;;;;;;;10.32;1.65;;;;;;;16.20;100.00;101378.88;5069130;27;20050;-79
2022/10/16 11:43:56;;;;;;;7.80;2.08;;;;;;;16.21;100.00;101391.25;5101365;28;20035;-78
2022/10/16 11:46:27;;;;;;;12.50;3.35;;;;;;;16.24;100.00;101393.00;5084305;27;20154;-78
2022/10/16 11:49:17;;;;;;;7.63;1.90;;;;;;;16.24;100.00;101396.56;5082860;27;20046;-79